createdAt,value
2023-12-11T00:00:35.688Z,41.20
2023-12-11T00:03:03.548Z,39.10
2023-12-11T00:05:31.296Z,41.78
2023-12-11T00:07:59.118Z,41.60
2023-12-11T00:10:26.857Z,44.40
2023-12-11T00:12:55.027Z,42.92
2023-12-11T00:15:23.098Z,39.42
2023-12-11T00:17:50.985Z,38.78
2023-12-11T00:20:18.845Z,39.28
2023-12-11T00:22:46.607Z,41.85
2023-12-11T00:25:14.844Z,39.78
2023-12-11T00:27:42.593Z,39.25
2023-12-11T00:30:10.493Z,39.72
2023-12-11T00:32:38.294Z,39.28
2023-12-11T00:35:06.315Z,40.25
2023-12-11T00:37:34.211Z,39.95
2023-12-11T00:40:02.166Z,38.33
2023-12-11T00:42:29.986Z,38.00
2023-12-11T00:44:57.662Z,38.58
2023-12-11T00:47:25.350Z,40.33
2023-12-11T00:49:54.518Z,38.35
2023-12-11T00:52:22.317Z,38.08
2023-12-11T00:54:50.181Z,37.63
2023-12-11T00:57:17.916Z,35.45
2023-12-11T00:59:45.777Z,35.38
2023-12-11T01:02:14.373Z,35.40
2023-12-11T01:04:42.188Z,34.17
2023-12-11T01:07:10.337Z,35.72
2023-12-11T01:09:38.565Z,35.00
2023-12-11T01:12:06.546Z,34.50
2023-12-11T01:14:34.297Z,33.58
2023-12-11T01:17:35.977Z,33.75
2023-12-11T01:19:49.873Z,33.30
2023-12-11T01:22:17.675Z,31.70
2023-12-11T01:24:45.404Z,33.45
2023-12-11T01:27:13.172Z,33.55
2023-12-11T01:29:40.818Z,34.47
2023-12-11T01:32:08.570Z,33.20
2023-12-11T01:34:36.350Z,32.80
2023-12-11T01:37:04.266Z,34.83
2023-12-11T01:39:32.066Z,33.28
2023-12-11T01:42:00.295Z,34.13
2023-12-11T01:44:28.148Z,33.28
2023-12-11T01:46:55.986Z,33.95
2023-12-11T01:49:23.774Z,33.90
2023-12-11T01:51:51.682Z,32.90
2023-12-11T01:54:20.698Z,33.15
2023-12-11T01:56:48.560Z,31.48
2023-12-11T01:59:16.396Z,32.63
2023-12-11T02:01:45.140Z,33.95
2023-12-11T02:04:17.190Z,33.40
2023-12-11T02:06:45.050Z,32.78
2023-12-11T02:09:12.842Z,33.33
2023-12-11T02:11:41.292Z,33.33
2023-12-11T02:14:09.751Z,33.97
2023-12-11T02:16:37.538Z,32.95
2023-12-11T02:19:05.326Z,34.72
2023-12-11T02:21:33.264Z,33.08
2023-12-11T02:24:03.699Z,32.95
2023-12-11T02:26:31.480Z,33.72
2023-12-11T02:28:59.259Z,34.05
2023-12-11T02:31:27.007Z,33.65
2023-12-11T02:33:54.754Z,32.70
2023-12-11T02:36:22.470Z,33.10
2023-12-11T02:38:50.147Z,33.95
2023-12-11T02:41:17.908Z,32.78
2023-12-11T02:43:45.849Z,32.10
2023-12-11T02:46:13.692Z,31.70
2023-12-11T02:48:41.651Z,31.33
2023-12-11T02:51:09.635Z,29.98
2023-12-11T02:53:37.377Z,28.25
2023-12-11T02:56:05.283Z,29.10
2023-12-11T02:58:32.961Z,29.15
2023-12-11T03:01:00.989Z,29.05
2023-12-11T03:03:28.838Z,28.50
2023-12-11T03:05:56.577Z,29.38
2023-12-11T03:08:24.364Z,29.27
2023-12-11T03:10:52.080Z,28.35
2023-12-11T03:13:19.775Z,27.90
2023-12-11T03:15:47.506Z,26.33
2023-12-11T03:18:15.302Z,27.52
2023-12-11T03:20:43.366Z,26.95
2023-12-11T03:23:11.109Z,27.33
2023-12-11T03:25:38.835Z,26.88
2023-12-11T03:28:06.666Z,26.98
2023-12-11T03:30:34.415Z,27.17
2023-12-11T03:33:02.204Z,27.73
2023-12-11T03:35:29.886Z,29.38
2023-12-11T03:37:57.664Z,27.35
2023-12-11T03:40:25.352Z,28.65
2023-12-11T03:42:53.104Z,28.40
2023-12-11T03:45:20.822Z,28.92
2023-12-11T03:47:48.569Z,28.88
2023-12-11T03:50:16.351Z,27.92
2023-12-11T03:52:44.064Z,29.42
2023-12-11T03:55:11.898Z,29.67
2023-12-11T03:57:39.754Z,29.48
2023-12-11T04:00:08.126Z,29.20
2023-12-11T04:02:35.885Z,27.10
2023-12-11T04:05:05.149Z,26.50
2023-12-11T04:07:33.200Z,25.08
2023-12-11T04:10:00.937Z,24.75
2023-12-11T04:12:28.679Z,26.02
2023-12-11T04:14:56.552Z,24.33
2023-12-11T04:17:24.264Z,23.23
2023-12-11T04:19:52.178Z,25.65
2023-12-11T04:22:19.981Z,25.83
2023-12-11T04:24:47.779Z,25.50
2023-12-11T04:27:15.892Z,25.60
2023-12-11T04:29:43.928Z,25.80
2023-12-11T04:32:11.633Z,25.92
2023-12-11T04:34:39.473Z,26.48
2023-12-11T04:37:07.176Z,26.65
2023-12-11T04:39:34.898Z,26.83
2023-12-11T04:42:02.697Z,26.40
2023-12-11T04:44:30.384Z,27.02
2023-12-11T04:46:58.121Z,26.88
2023-12-11T04:49:25.880Z,25.42
2023-12-11T04:51:53.714Z,26.42
2023-12-11T04:54:21.428Z,27.23
2023-12-11T04:56:49.119Z,26.23
2023-12-11T04:59:16.784Z,23.90
2023-12-11T05:01:44.590Z,25.13
2023-12-11T05:04:12.422Z,24.58
2023-12-11T05:06:40.211Z,25.13
2023-12-11T05:09:07.876Z,25.35
2023-12-11T05:11:35.696Z,25.30
2023-12-11T05:14:03.681Z,23.85
2023-12-11T05:16:31.673Z,24.80
2023-12-11T05:18:59.537Z,25.02
2023-12-11T05:21:27.287Z,25.17
2023-12-11T05:23:55.704Z,25.73
2023-12-11T05:26:23.766Z,26.83
2023-12-11T05:28:51.993Z,26.38
2023-12-11T05:31:19.811Z,25.73
2023-12-11T05:33:47.670Z,24.40
2023-12-11T05:36:15.403Z,24.02
2023-12-11T05:38:43.164Z,24.10
2023-12-11T05:41:10.979Z,23.35
2023-12-11T05:43:38.766Z,24.38
2023-12-11T05:46:07.429Z,23.83
2023-12-11T05:48:35.440Z,22.80
2023-12-11T05:51:03.728Z,23.98
2023-12-11T05:53:31.435Z,23.55
2023-12-11T05:55:59.133Z,23.17
2023-12-11T05:58:26.970Z,25.67
2023-12-11T06:00:54.839Z,23.33
2023-12-11T06:03:22.597Z,25.10
2023-12-11T06:05:50.600Z,24.35
2023-12-11T06:08:18.359Z,25.25
2023-12-11T06:10:46.246Z,25.38
2023-12-11T06:13:13.997Z,23.40
2023-12-11T06:15:41.827Z,24.00
2023-12-11T06:18:09.639Z,23.77
2023-12-11T06:20:37.454Z,23.73
2023-12-11T06:23:05.122Z,23.98
2023-12-11T06:25:33.274Z,25.33
2023-12-11T06:28:00.985Z,23.58
2023-12-11T06:30:28.694Z,23.73
2023-12-11T06:32:56.422Z,24.50
2023-12-11T06:35:24.242Z,25.35
2023-12-11T06:37:51.998Z,24.42
2023-12-11T06:40:19.811Z,27.88
2023-12-11T06:42:47.551Z,26.73
2023-12-11T06:45:16.114Z,24.45
2023-12-11T06:47:43.915Z,26.25
2023-12-11T06:50:12.207Z,26.13
2023-12-11T06:52:40.139Z,24.90
2023-12-11T06:55:08.865Z,27.02
2023-12-11T06:57:36.679Z,25.83
2023-12-11T07:00:06.441Z,25.08
2023-12-11T07:02:34.656Z,27.40
2023-12-11T07:05:02.789Z,26.25
2023-12-11T07:07:31.064Z,26.50
2023-12-11T07:10:05.286Z,28.63
2023-12-11T07:12:33.224Z,26.40
2023-12-11T07:15:01.613Z,28.90
2023-12-11T07:17:29.947Z,27.75
2023-12-11T07:19:58.382Z,25.77
2023-12-11T07:22:26.383Z,28.15
2023-12-11T07:24:54.180Z,27.27
2023-12-11T07:27:21.904Z,29.08
2023-12-11T07:29:49.592Z,28.13
2023-12-11T07:32:17.473Z,28.58
2023-12-11T07:34:45.377Z,28.52
2023-12-11T07:37:13.188Z,28.88
2023-12-11T07:39:41.017Z,28.50
2023-12-11T07:42:08.909Z,29.90
2023-12-11T07:44:36.634Z,26.90
2023-12-11T07:47:04.300Z,28.45
2023-12-11T07:49:32.155Z,27.95
2023-12-11T07:52:00.513Z,28.02
2023-12-11T07:54:28.310Z,28.92
2023-12-11T07:56:56.130Z,28.52
2023-12-11T07:59:23.847Z,29.25
2023-12-11T08:01:53.465Z,27.00
2023-12-11T08:04:21.589Z,25.98
2023-12-11T08:06:51.389Z,25.95
2023-12-11T08:09:19.091Z,27.48
2023-12-11T08:11:46.997Z,27.02
2023-12-11T08:14:14.663Z,27.42
2023-12-11T08:16:42.512Z,28.00
2023-12-11T08:19:10.284Z,29.02
2023-12-11T08:21:38.152Z,29.17
2023-12-11T08:24:06.908Z,28.55
2023-12-11T08:26:34.628Z,29.00
2023-12-11T08:29:02.364Z,28.90
2023-12-11T08:31:30.081Z,27.77
2023-12-11T08:33:58.080Z,26.85
2023-12-11T08:36:26.128Z,26.88
2023-12-11T08:38:54.136Z,26.70
2023-12-11T08:41:21.872Z,26.73
2023-12-11T08:43:49.700Z,26.88
2023-12-11T08:46:17.587Z,27.00
2023-12-11T08:48:45.899Z,27.20
2023-12-11T08:51:13.642Z,26.90
2023-12-11T08:53:41.419Z,27.42
2023-12-11T08:56:09.227Z,29.52
2023-12-11T08:58:38.082Z,29.35
2023-12-11T09:01:06.487Z,29.38
2023-12-11T09:03:34.340Z,28.00
2023-12-11T09:06:02.143Z,27.13
2023-12-11T09:08:30.150Z,27.88
2023-12-11T09:10:58.217Z,29.25
2023-12-11T09:13:29.248Z,28.10
2023-12-11T09:16:00.212Z,28.05
2023-12-11T09:18:28.524Z,26.05
2023-12-11T09:20:56.638Z,24.67
2023-12-11T09:23:24.449Z,23.85
2023-12-11T09:25:52.390Z,24.38
2023-12-11T09:28:20.245Z,25.60
2023-12-11T09:30:48.118Z,26.40
2023-12-11T09:33:16.313Z,26.48
2023-12-11T09:35:47.798Z,23.88
2023-12-11T09:38:16.173Z,25.58
2023-12-11T09:40:44.088Z,25.55
2023-12-11T09:43:11.883Z,26.60
2023-12-11T09:45:40.544Z,46.05
2023-12-11T09:48:14.365Z,30.95
2023-12-11T09:50:43.439Z,31.02
2023-12-11T09:53:11.350Z,26.33
2023-12-11T09:55:39.569Z,25.70
2023-12-11T09:58:08.329Z,26.52
2023-12-11T10:00:36.858Z,24.42
2023-12-11T10:03:06.913Z,25.83
2023-12-11T10:05:37.296Z,25.65
2023-12-11T10:08:05.699Z,29.55
2023-12-11T10:10:35.101Z,30.63
2023-12-11T10:13:03.336Z,30.20
2023-12-11T10:15:34.893Z,29.23
2023-12-11T10:18:04.697Z,30.85
2023-12-11T10:20:33.223Z,29.63
2023-12-11T10:23:14.478Z,27.88
2023-12-11T10:25:48.596Z,29.33
2023-12-11T10:28:20.688Z,28.85
2023-12-11T10:31:00.736Z,29.67
2023-12-11T10:33:32.596Z,30.33
2023-12-11T10:36:13.386Z,29.70
2023-12-11T10:38:41.533Z,29.35
2023-12-11T10:41:09.634Z,30.73
2023-12-11T10:44:02.002Z,29.80
2023-12-11T10:46:37.179Z,28.92
2023-12-11T10:49:05.699Z,29.52
2023-12-11T10:51:35.990Z,30.38
2023-12-11T10:54:15.023Z,31.00
2023-12-11T10:56:47.801Z,32.13
2023-12-11T10:59:15.659Z,30.92
2023-12-11T11:01:46.752Z,30.17
2023-12-11T11:04:15.472Z,30.60
2023-12-11T11:07:03.483Z,32.38
2023-12-11T11:09:34.149Z,32.65
2023-12-11T11:12:16.828Z,30.38
2023-12-11T11:14:48.974Z,31.98
2023-12-11T11:17:19.181Z,32.38
2023-12-11T11:20:11.746Z,32.17
2023-12-11T11:22:41.304Z,33.55
2023-12-11T11:25:41.950Z,32.13
2023-12-11T11:28:32.179Z,30.80
2023-12-11T11:31:15.250Z,29.95
2023-12-11T11:33:48.791Z,32.22
2023-12-11T11:36:18.304Z,31.85
2023-12-11T11:38:52.758Z,33.35
2023-12-11T11:41:33.662Z,32.47
2023-12-11T11:44:01.576Z,32.22
2023-12-11T11:46:29.596Z,33.30
2023-12-11T11:48:57.655Z,32.47
2023-12-11T11:51:31.171Z,32.88
2023-12-11T11:54:00.896Z,31.48
2023-12-11T11:56:28.839Z,33.13
2023-12-11T11:59:04.012Z,33.45
2023-12-11T12:01:31.868Z,29.77
2023-12-11T12:04:04.434Z,29.13
2023-12-11T12:06:32.491Z,30.60
2023-12-11T12:09:02.801Z,29.27
2023-12-11T12:11:34.907Z,28.42
2023-12-11T12:14:02.783Z,28.53
2023-12-11T12:16:31.014Z,28.90
2023-12-11T12:18:58.808Z,29.00
2023-12-11T12:21:26.547Z,27.77
2023-12-11T12:24:02.122Z,28.63
2023-12-11T12:26:29.915Z,28.38
2023-12-11T12:28:57.605Z,36.95
2023-12-11T12:31:25.368Z,41.38
2023-12-11T12:33:53.592Z,31.25
2023-12-11T12:36:21.646Z,31.48
2023-12-11T12:38:49.480Z,31.23
2023-12-11T12:41:18.713Z,30.58
2023-12-11T12:43:48.402Z,30.38
2023-12-11T12:46:18.984Z,30.07
2023-12-11T12:48:46.866Z,29.38
2023-12-11T12:51:15.920Z,33.88
2023-12-11T12:53:48.242Z,29.70
2023-12-11T12:56:20.691Z,29.45
2023-12-11T12:58:49.456Z,30.77
2023-12-11T13:01:18.279Z,29.15
2023-12-11T13:03:46.424Z,29.13
2023-12-11T13:06:29.793Z,29.98
2023-12-11T13:08:57.706Z,30.77
2023-12-11T13:11:44.810Z,38.85
2023-12-11T13:14:15.899Z,31.20
2023-12-11T13:16:48.015Z,31.80
2023-12-11T13:21:44.628Z,32.88
2023-12-11T13:24:14.120Z,32.97
2023-12-11T13:26:41.831Z,33.92
2023-12-11T13:29:09.526Z,34.83
2023-12-11T13:31:37.375Z,30.90
2023-12-11T13:34:05.173Z,30.48
2023-12-11T13:36:32.987Z,32.45
2023-12-11T13:39:00.749Z,31.48
2023-12-11T13:41:28.540Z,31.70
2023-12-11T13:43:56.253Z,31.35
2023-12-11T13:46:24.435Z,31.15
2023-12-11T13:48:52.381Z,31.45
2023-12-11T13:51:20.203Z,29.33
2023-12-11T13:53:47.872Z,29.33
2023-12-11T13:56:15.584Z,31.10
2023-12-11T13:58:43.377Z,30.02
2023-12-11T14:01:11.261Z,30.02
2023-12-11T14:03:39.019Z,32.25
2023-12-11T14:06:07.096Z,33.60
2023-12-11T14:08:34.873Z,32.55
2023-12-11T14:11:02.757Z,32.45
2023-12-11T14:13:30.577Z,32.08
2023-12-11T14:15:59.790Z,32.13
2023-12-11T14:18:31.139Z,30.65
2023-12-11T14:21:02.525Z,31.17
2023-12-11T14:23:30.586Z,32.10
2023-12-11T14:25:58.284Z,32.15
2023-12-11T14:28:26.109Z,31.70
2023-12-11T14:30:54.943Z,32.20
2023-12-11T14:33:22.727Z,32.42
2023-12-11T14:35:50.472Z,34.05
2023-12-11T14:38:18.196Z,32.95
2023-12-11T14:40:45.988Z,32.47
2023-12-11T14:43:14.357Z,32.92
2023-12-11T14:45:42.329Z,33.15
2023-12-11T14:48:10.098Z,33.97
2023-12-11T14:50:38.164Z,33.03
2023-12-11T14:53:05.928Z,34.60
2023-12-11T14:55:39.148Z,33.65
2023-12-11T14:58:11.053Z,35.10
2023-12-11T15:00:39.285Z,34.00
2023-12-11T15:03:07.060Z,35.85
2023-12-11T15:05:34.798Z,34.38
2023-12-11T15:08:02.546Z,33.95
2023-12-11T15:10:31.684Z,34.10
2023-12-11T15:12:59.568Z,33.78
2023-12-11T15:15:29.038Z,34.58
2023-12-11T15:17:56.830Z,33.95
2023-12-11T15:20:25.371Z,34.08
2023-12-11T15:22:53.077Z,35.17
2023-12-11T15:25:20.867Z,36.10
2023-12-11T15:27:50.254Z,34.35
2023-12-11T15:30:18.466Z,34.45
2023-12-11T15:32:48.798Z,36.33
2023-12-11T15:35:17.452Z,35.50
2023-12-11T15:37:45.185Z,36.58
2023-12-11T15:40:13.297Z,35.53
2023-12-11T15:42:41.072Z,35.35
2023-12-11T15:45:09.235Z,36.30
2023-12-11T15:47:59.938Z,34.78
2023-12-11T15:50:25.493Z,33.47
2023-12-11T15:52:53.294Z,35.15
2023-12-11T15:55:21.535Z,35.17
2023-12-11T15:57:49.367Z,35.85
2023-12-11T16:00:17.243Z,34.83
2023-12-11T16:02:45.159Z,36.30
2023-12-11T16:05:12.861Z,34.97
2023-12-11T16:07:40.695Z,36.20
2023-12-11T16:10:08.747Z,35.33
2023-12-11T16:12:38.765Z,34.95
2023-12-11T16:15:06.723Z,35.72
2023-12-11T16:17:34.786Z,34.97
2023-12-11T16:20:03.040Z,35.22
2023-12-11T16:22:30.893Z,36.80
2023-12-11T16:24:58.647Z,36.47
2023-12-11T16:27:26.358Z,35.97
2023-12-11T16:29:54.139Z,35.65
2023-12-11T16:32:21.894Z,35.45
2023-12-11T16:34:49.551Z,34.70
2023-12-11T16:37:18.636Z,35.92
2023-12-11T16:39:46.512Z,36.47
2023-12-11T16:42:14.394Z,36.05
2023-12-11T16:44:42.122Z,38.08
2023-12-11T16:47:09.861Z,35.65
2023-12-11T16:49:47.485Z,37.47
2023-12-11T16:52:23.069Z,37.75
2023-12-11T16:54:51.278Z,35.03
2023-12-11T16:57:19.001Z,35.88
2023-12-11T16:59:46.667Z,36.00
2023-12-11T17:02:15.251Z,36.42
2023-12-11T17:04:44.668Z,37.97
2023-12-11T17:07:13.124Z,34.80
2023-12-11T17:09:40.746Z,33.30
2023-12-11T17:12:08.595Z,33.50
2023-12-11T17:14:36.433Z,30.23
2023-12-11T17:17:07.106Z,33.10
2023-12-11T17:19:34.856Z,32.70
2023-12-11T17:22:02.659Z,35.55
2023-12-11T17:24:30.868Z,35.20
2023-12-11T17:26:58.545Z,33.45
2023-12-11T17:29:27.133Z,36.30
2023-12-11T17:31:54.933Z,40.50
2023-12-11T17:34:22.662Z,38.40
2023-12-11T17:36:50.412Z,38.53
2023-12-11T17:39:21.199Z,41.10
2023-12-11T17:41:49.111Z,38.05
2023-12-11T17:44:16.839Z,39.63
2023-12-11T17:46:44.625Z,37.75
2023-12-11T17:49:12.364Z,38.75
2023-12-11T17:51:40.322Z,38.70
2023-12-11T17:54:07.964Z,38.58
2023-12-11T17:56:35.565Z,39.10
2023-12-11T17:59:03.273Z,38.72
2023-12-11T18:01:30.990Z,37.63
2023-12-11T18:03:58.786Z,34.63
2023-12-11T18:06:26.656Z,35.15
2023-12-11T18:08:54.315Z,35.40
2023-12-11T18:11:22.012Z,35.60
2023-12-11T18:13:49.747Z,35.83
2023-12-11T18:16:17.406Z,38.63
2023-12-11T18:18:45.557Z,37.17
2023-12-11T18:21:24.752Z,38.75
2023-12-11T18:24:00.176Z,40.47
2023-12-11T18:26:30.797Z,40.85
2023-12-11T18:28:59.638Z,38.47
2023-12-11T18:31:27.599Z,40.63
2023-12-11T18:33:58.913Z,42.80
2023-12-11T18:44:48.482Z,37.33
2023-12-11T18:50:13.299Z,34.22
2023-12-11T19:09:31.242Z,48.08
2023-12-11T19:11:59.317Z,46.00
2023-12-11T19:18:09.821Z,37.45
2023-12-11T19:24:47.127Z,43.83
2023-12-11T19:27:16.311Z,44.88
2023-12-11T19:29:45.147Z,48.22
2023-12-11T19:32:16.798Z,50.47
2023-12-11T19:34:44.560Z,51.47
2023-12-11T19:37:12.391Z,46.08
2023-12-11T19:39:40.221Z,48.67
2023-12-11T19:42:10.347Z,46.55
2023-12-11T19:44:39.724Z,45.78
2023-12-11T19:47:07.596Z,43.58
2023-12-11T19:49:36.729Z,50.35
2023-12-11T19:52:05.655Z,48.00
2023-12-11T19:54:33.795Z,55.03
2023-12-11T19:57:01.513Z,47.72
2023-12-11T19:59:29.205Z,46.92
2023-12-11T20:01:57.008Z,46.45
2023-12-11T20:04:24.944Z,47.08
2023-12-11T20:06:55.902Z,47.40
2023-12-11T20:09:34.187Z,50.28
2023-12-11T20:12:11.260Z,46.38
2023-12-11T20:14:42.415Z,45.38
2023-12-11T20:17:13.597Z,46.58
2023-12-11T20:19:41.758Z,45.15
2023-12-11T20:22:09.576Z,48.63
2023-12-11T20:24:37.618Z,45.47
2023-12-11T20:27:08.743Z,44.75
2023-12-11T20:29:36.454Z,43.55
2023-12-11T20:32:04.399Z,43.42
2023-12-11T20:34:32.308Z,44.70
2023-12-11T20:37:00.068Z,45.85
2023-12-11T20:39:27.861Z,43.40
2023-12-11T20:41:55.624Z,43.83
2023-12-11T20:44:23.372Z,43.70
2023-12-11T20:46:51.144Z,42.95
2023-12-11T20:49:19.059Z,44.30
2023-12-11T20:51:46.797Z,43.58
2023-12-11T20:54:15.741Z,41.00
2023-12-11T20:56:43.427Z,39.17
2023-12-11T20:59:11.138Z,41.55
2023-12-11T21:01:39.645Z,37.72
2023-12-11T21:04:09.156Z,35.88
2023-12-11T21:06:37.252Z,34.08
2023-12-11T21:09:15.985Z,35.67
2023-12-11T21:11:43.873Z,36.67
2023-12-11T21:14:11.719Z,37.65
2023-12-11T21:16:39.498Z,40.70
2023-12-11T21:19:07.405Z,38.97
2023-12-11T21:21:39.894Z,38.53
2023-12-11T21:24:10.003Z,31.45
2023-12-11T21:26:38.033Z,41.78
2023-12-11T21:29:05.818Z,43.47
2023-12-11T21:31:54.201Z,45.60
2023-12-11T21:34:43.884Z,44.53
2023-12-11T21:37:27.682Z,43.00
2023-12-11T21:39:55.882Z,41.53
2023-12-11T21:42:24.336Z,39.10
2023-12-11T21:44:52.071Z,39.80
2023-12-11T21:47:22.765Z,39.10
2023-12-11T21:49:50.642Z,37.97
2023-12-11T21:52:18.426Z,41.03
2023-12-11T21:54:47.945Z,39.08
2023-12-11T21:57:19.863Z,40.10
2023-12-11T21:59:48.629Z,39.40
2023-12-11T22:02:16.538Z,38.55
2023-12-11T22:04:44.312Z,38.65
2023-12-11T22:07:14.140Z,39.53
2023-12-11T22:09:43.433Z,37.33
2023-12-11T22:12:11.187Z,37.88
2023-12-11T22:14:38.854Z,38.70
2023-12-11T22:17:06.768Z,39.22
2023-12-11T22:19:36.096Z,39.25
2023-12-11T22:22:03.890Z,37.83
2023-12-11T22:24:31.584Z,38.45
2023-12-11T22:26:59.319Z,37.80
2023-12-11T22:29:26.969Z,38.60
2023-12-11T22:31:54.664Z,37.78
2023-12-11T22:34:22.420Z,36.13
2023-12-11T22:36:52.841Z,38.00
2023-12-11T22:39:21.474Z,37.30
2023-12-11T22:41:49.154Z,37.53
2023-12-11T22:44:16.828Z,39.13
2023-12-11T22:46:44.481Z,37.75
2023-12-11T22:49:12.215Z,38.47
2023-12-11T22:51:39.989Z,37.83
2023-12-11T22:54:07.618Z,38.78
2023-12-11T22:56:35.296Z,38.55
2023-12-11T22:59:03.014Z,38.92
2023-12-11T23:01:34.552Z,40.03
2023-12-11T23:04:02.572Z,38.28
2023-12-11T23:06:30.242Z,37.42
2023-12-11T23:08:57.914Z,37.63
2023-12-11T23:11:25.628Z,38.42
2023-12-11T23:13:53.280Z,37.30
2023-12-11T23:16:26.338Z,38.70
2023-12-11T23:19:00.496Z,36.65
2023-12-11T23:21:29.449Z,35.47
2023-12-11T23:23:57.772Z,38.97
2023-12-11T23:26:25.667Z,38.88
2023-12-11T23:28:55.251Z,40.53
2023-12-11T23:31:22.948Z,37.50
2023-12-11T23:33:50.854Z,37.85
2023-12-11T23:36:20.768Z,36.50
2023-12-11T23:38:48.491Z,36.92
2023-12-11T23:41:16.472Z,36.88
2023-12-11T23:43:44.194Z,36.40
2023-12-11T23:46:11.853Z,36.67
2023-12-11T23:48:39.710Z,34.85
2023-12-11T23:51:07.465Z,36.17
2023-12-11T23:53:35.097Z,35.13
2023-12-11T23:56:02.807Z,34.25
2023-12-11T23:58:30.645Z,34.83
